Time;durP1;ratioP1;P1;durP2;ratioP2;P2;SDS_P1;SDS_P2;PMS_P1;PMS_P2;Temp;Humidity;BMP_temperature;BMP_pressure;BME280_temperature;BME280_humidity;BME280_pressure;Samples;Min_cycle;Max_cycle;Signal;HPM_P1;HPM_P2
2022/05/08 00:02:19;;;;;;;20.17;4.18;;;9.40;99.90;;;;;;5035103;28;20080;-58
2022/05/08 00:04:49;;;;;;;17.73;4.07;;;9.30;99.90;;;;;;5057619;28;20117;-57
2022/05/08 00:07:16;;;;;;;18.80;4.13;;;9.30;99.90;;;;;;5057684;28;20037;-59
2022/05/08 00:09:42;;;;;;;20.35;4.80;;;9.30;99.90;;;;;;5028011;28;20119;-56
2022/05/08 00:12:11;;;;;;;21.70;5.32;;;9.30;99.90;;;;;;5053312;28;20051;-57
2022/05/08 00:14:38;;;;;;;22.40;4.93;;;9.30;99.90;;;;;;5037002;28;20119;-58
2022/05/08 00:17:04;;;;;;;16.70;4.13;;;9.20;99.90;;;;;;5056649;28;20402;-57
2022/05/08 00:19:29;;;;;;;19.42;4.38;;;9.20;99.90;;;;;;5055575;28;20091;-55
2022/05/08 00:21:55;;;;;;;22.52;5.22;;;9.20;99.90;;;;;;5058827;28;20491;-52
2022/05/08 00:24:21;;;;;;;17.02;4.43;;;9.10;99.90;;;;;;5044837;28;20064;-55
2022/05/08 00:26:46;;;;;;;18.95;4.97;;;9.10;99.90;;;;;;5055598;28;20043;-59
2022/05/08 00:29:12;;;;;;;18.30;4.57;;;9.10;99.90;;;;;;5039746;28;20271;-52
2022/05/08 00:31:39;;;;;;;22.15;5.38;;;9.00;99.90;;;;;;5046180;28;20075;-56
2022/05/08 00:34:04;;;;;;;21.30;5.60;;;9.00;99.90;;;;;;5052334;28;20086;-57
2022/05/08 00:36:30;;;;;;;15.40;4.82;;;9.00;99.90;;;;;;5055708;28;20041;-52
2022/05/08 00:38:56;;;;;;;21.95;5.03;;;9.00;99.90;;;;;;5055657;28;20040;-52
2022/05/08 00:41:22;;;;;;;20.80;5.32;;;9.00;99.90;;;;;;5056279;28;20060;-59
2022/05/08 00:43:47;;;;;;;22.50;5.20;;;9.00;99.90;;;;;;5028172;28;20085;-58
2022/05/08 00:46:16;;;;;;;18.98;4.22;;;8.90;99.90;;;;;;5055140;28;20121;-56
2022/05/08 00:48:42;;;;;;;17.60;4.35;;;8.90;99.90;;;;;;5043281;28;20475;-58
2022/05/08 00:51:10;;;;;;;20.50;4.88;;;8.90;99.90;;;;;;5032892;28;20288;-59
2022/05/08 00:53:38;;;;;;;18.77;4.68;;;8.90;99.90;;;;;;5050571;28;20103;-56
2022/05/08 00:56:06;;;;;;;13.35;3.90;;;8.90;99.90;;;;;;5052503;28;20685;-58
2022/05/08 00:58:34;;;;;;;18.13;5.07;;;8.80;99.90;;;;;;5060571;28;20677;-55
2022/05/08 01:01:00;;;;;;;20.80;4.78;;;8.80;99.90;;;;;;5049726;28;20068;-59
2022/05/08 01:03:26;;;;;;;22.08;4.97;;;8.80;99.90;;;;;;5061480;28;20126;-55
2022/05/08 01:05:54;;;;;;;27.63;5.72;;;8.80;99.90;;;;;;5038519;28;20529;-59
2022/05/08 01:08:22;;;;;;;18.90;4.53;;;8.80;99.90;;;;;;5053909;28;20128;-57
2022/05/08 01:10:48;;;;;;;27.38;5.75;;;8.80;99.90;;;;;;5045059;28;20412;-58
2022/05/08 01:13:14;;;;;;;15.80;4.10;;;8.80;99.90;;;;;;5050815;28;20052;-59
2022/05/08 01:15:45;;;;;;;18.90;5.05;;;8.80;99.90;;;;;;5054513;28;20047;-57
2022/05/08 01:18:13;;;;;;;18.77;4.15;;;8.70;99.90;;;;;;5057838;28;20047;-55
2022/05/08 01:20:40;;;;;;;18.92;4.78;;;8.70;99.90;;;;;;5055525;28;20068;-55
2022/05/08 01:23:06;;;;;;;20.15;4.40;;;8.80;99.90;;;;;;5055311;28;20068;-61
2022/05/08 01:25:34;;;;;;;19.30;4.90;;;8.70;99.90;;;;;;5074635;28;20044;-56
2022/05/08 01:28:04;;;;;;;19.48;4.70;;;8.70;99.90;;;;;;5051939;28;20535;-59
2022/05/08 01:30:31;;;;;;;17.73;5.43;;;8.70;99.90;;;;;;5052805;28;20400;-59
2022/05/08 01:32:58;;;;;;;18.77;4.45;;;8.70;99.90;;;;;;5056913;28;20040;-59
2022/05/08 01:35:30;;;;;;;17.40;4.15;;;8.70;99.90;;;;;;5053644;28;20044;-56
2022/05/08 01:37:55;;;;;;;15.65;3.58;;;8.70;99.90;;;;;;5053427;28;20098;-58
2022/05/08 01:40:21;;;;;;;20.55;5.18;;;8.70;99.90;;;;;;5040538;28;20044;-56
2022/05/08 01:42:47;;;;;;;18.27;4.03;;;8.60;99.90;;;;;;5044707;28;20036;-54
2022/05/08 01:45:12;;;;;;;16.48;3.45;;;8.60;99.90;;;;;;5045019;28;20115;-56
2022/05/08 01:50:24;;;;;;;16.60;3.58;;;8.60;99.90;;;;;;5052033;28;20127;-56
2022/05/08 01:52:51;;;;;;;17.35;3.90;;;8.60;99.90;;;;;;5054962;28;20078;-56
2022/05/08 01:55:17;;;;;;;13.75;3.55;;;8.60;99.90;;;;;;5056477;28;20436;-57
2022/05/08 01:57:44;;;;;;;15.55;3.88;;;8.60;99.90;;;;;;5057665;28;20041;-55
2022/05/08 02:00:10;;;;;;;15.73;4.38;;;8.60;99.90;;;;;;5052379;28;20527;-53
2022/05/08 02:02:37;;;;;;;16.02;4.28;;;8.50;99.90;;;;;;5057149;28;20535;-55
2022/05/08 02:05:03;;;;;;;14.48;3.95;;;8.50;99.90;;;;;;5058764;28;20534;-57
2022/05/08 02:07:29;;;;;;;18.15;5.35;;;8.50;99.90;;;;;;5057526;28;20088;-58
2022/05/08 02:09:58;;;;;;;15.15;4.38;;;8.50;99.90;;;;;;5050545;28;20289;-58
2022/05/08 02:12:24;;;;;;;17.60;4.32;;;8.50;99.90;;;;;;5053168;28;20430;-55
2022/05/08 02:14:50;;;;;;;20.30;3.17;;;8.50;99.90;;;;;;5057815;28;20033;-56
2022/05/08 02:17:17;;;;;;;21.98;4.10;;;8.40;99.90;;;;;;5058584;28;20106;-57
2022/05/08 02:19:44;;;;;;;16.38;3.58;;;8.40;99.90;;;;;;5063006;28;20051;-60
2022/05/08 02:22:12;;;;;;;15.95;3.83;;;8.40;99.90;;;;;;5059798;22;20143;-82
2022/05/08 02:24:38;;;;;;;19.20;4.13;;;8.30;99.90;;;;;;5026983;28;20147;-84
2022/05/08 02:27:04;;;;;;;14.98;4.13;;;8.30;99.90;;;;;;5036256;28;20119;-83
2022/05/08 02:29:30;;;;;;;15.75;3.80;;;8.30;99.90;;;;;;5049033;28;20559;-83
2022/05/08 02:31:58;;;;;;;14.55;3.60;;;8.30;99.90;;;;;;5033986;28;20111;-84
2022/05/08 02:34:30;;;;;;;20.33;4.57;;;8.90;99.90;;;;;;5004274;28;20435;-84
2022/05/08 02:36:55;;;;;;;18.92;3.95;;;8.80;99.90;;;;;;5024937;28;20033;-85
2022/05/08 02:39:21;;;;;;;15.30;4.97;;;8.70;99.90;;;;;;5030025;28;20044;-84
2022/05/08 02:41:47;;;;;;;15.00;4.53;;;8.30;99.90;;;;;;5032615;28;20045;-83
2022/05/08 02:44:12;;;;;;;13.57;3.67;;;8.30;99.90;;;;;;5015528;28;20124;-84
2022/05/08 02:46:38;;;;;;;8.95;2.83;;;8.20;99.90;;;;;;5018863;28;20302;-83
2022/05/08 02:49:06;;;;;;;15.98;3.63;;;8.20;99.90;;;;;;5034644;28;20102;-84
2022/05/08 02:51:35;;;;;;;14.63;4.20;;;8.20;99.90;;;;;;5035409;28;20682;-85
2022/05/08 02:54:03;;;;;;;19.02;3.72;;;8.30;99.90;;;;;;5011311;28;20132;-81
2022/05/08 02:59:15;;;;;;;20.08;5.07;;;8.20;99.90;;;;;;5040775;28;20594;-83
2022/05/08 03:01:41;;;;;;;19.58;4.25;;;8.10;99.90;;;;;;5016723;28;20481;-83
2022/05/08 03:04:09;;;;;;;16.08;4.43;;;8.20;99.90;;;;;;5016521;28;20052;-84
2022/05/08 03:06:35;;;;;;;11.45;3.20;;;8.20;99.90;;;;;;5047453;28;20032;-84
2022/05/08 03:09:01;;;;;;;15.50;3.38;;;8.10;99.90;;;;;;5049264;28;20033;-83
2022/05/08 03:11:28;;;;;;;14.05;3.42;;;8.10;99.90;;;;;;5058505;28;20035;-84
2022/05/08 03:13:54;;;;;;;16.13;3.28;;;8.20;99.90;;;;;;5024233;28;20033;-83
2022/05/08 03:16:22;;;;;;;23.27;5.30;;;8.00;99.90;;;;;;5023907;28;20041;-83
2022/05/08 03:18:49;;;;;;;12.52;3.30;;;8.00;99.90;;;;;;5032778;28;20052;-84
2022/05/08 03:21:15;;;;;;;13.98;3.13;;;8.00;99.90;;;;;;5029511;28;20055;-83
2022/05/08 03:23:43;;;;;;;8.50;2.60;;;8.00;99.90;;;;;;5048545;28;20036;-85
2022/05/08 03:26:09;;;;;;;11.85;2.97;;;8.40;99.90;;;;;;5054081;28;20066;-84
2022/05/08 03:28:36;;;;;;;18.35;3.42;;;7.90;99.90;;;;;;5029349;28;20033;-82
2022/05/08 03:31:02;;;;;;;14.45;3.85;;;8.00;99.90;;;;;;5010189;28;20049;-84
2022/05/08 03:33:28;;;;;;;11.20;3.22;;;8.00;99.90;;;;;;5025326;28;20043;-83
2022/05/08 03:35:55;;;;;;;11.52;3.70;;;7.90;99.90;;;;;;5042060;28;20037;-83
2022/05/08 03:38:21;;;;;;;10.77;2.83;;;7.90;99.90;;;;;;5049754;28;20525;-84
2022/05/08 03:40:47;;;;;;;11.00;2.90;;;8.10;99.90;;;;;;5041033;28;20040;-84
2022/05/08 03:43:13;;;;;;;9.57;2.80;;;7.90;99.90;;;;;;5033182;28;20479;-84
2022/05/08 03:45:39;;;;;;;13.25;3.40;;;8.10;99.90;;;;;;5008549;28;20048;-84
2022/05/08 03:48:05;;;;;;;11.05;2.80;;;7.90;99.90;;;;;;5035518;28;20038;-85
2022/05/08 03:50:30;;;;;;;11.68;3.03;;;7.90;99.90;;;;;;5062723;28;20040;-84
2022/05/08 03:52:57;;;;;;;11.55;3.15;;;7.90;99.90;;;;;;5025497;28;20041;-84
2022/05/08 03:55:23;;;;;;;10.10;3.60;;;7.90;99.90;;;;;;5027031;28;20485;-84
2022/05/08 03:57:49;;;;;;;13.63;3.25;;;7.90;99.90;;;;;;5030822;28;20048;-84
2022/05/08 04:00:15;;;;;;;12.60;3.72;;;8.30;99.90;;;;;;5025148;28;20137;-85
2022/05/08 04:02:42;;;;;;;12.50;3.03;;;7.90;99.90;;;;;;5037284;28;20048;-83
2022/05/08 04:05:08;;;;;;;14.52;4.10;;;7.90;99.90;;;;;;5031730;28;20440;-84
2022/05/08 04:07:35;;;;;;;10.27;2.92;;;7.90;99.90;;;;;;5016055;28;20282;-84
2022/05/08 04:10:00;;;;;;;10.75;2.58;;;7.80;99.90;;;;;;5006013;28;20037;-84
2022/05/08 04:12:27;;;;;;;17.35;3.15;;;8.20;99.90;;;;;;5017816;28;20128;-84
2022/05/08 04:14:53;;;;;;;9.00;2.90;;;7.90;99.90;;;;;;5038002;28;20080;-82
2022/05/08 04:17:19;;;;;;;8.43;2.75;;;8.30;99.90;;;;;;5048650;28;20535;-83
2022/05/08 04:19:48;;;;;;;9.18;3.20;;;8.10;99.90;;;;;;5036532;28;20041;-84
2022/05/08 04:24:58;;;;;;;11.10;2.85;;;8.60;99.90;;;;;;5033144;28;20044;-85
2022/05/08 04:27:24;;;;;;;14.95;3.20;;;7.90;99.90;;;;;;5025957;28;20041;-85
2022/05/08 04:29:49;;;;;;;8.88;3.97;;;7.90;99.90;;;;;;5040780;28;20060;-84
2022/05/08 04:32:15;;;;;;;9.15;2.47;;;7.90;99.90;;;;;;5046212;28;20188;-84
2022/05/08 04:34:41;;;;;;;9.40;2.35;;;8.00;99.90;;;;;;5014846;28;20065;-84
2022/05/08 04:37:09;;;;;;;9.80;2.45;;;8.10;99.90;;;;;;5020988;28;20040;-84
2022/05/08 04:39:35;;;;;;;8.80;2.28;;;8.00;99.90;;;;;;5036925;28;20481;-84
2022/05/08 04:42:02;;;;;;;14.88;2.83;;;8.00;99.90;;;;;;5055519;28;20048;-84
2022/05/08 04:44:28;;;;;;;10.88;3.13;;;8.00;99.90;;;;;;5033273;28;20556;-83
2022/05/08 04:47:20;;;;;;;13.38;2.65;;;8.00;99.90;;;;;;5028326;28;20119;-84
2022/05/08 04:49:48;;;;;;;6.53;2.20;;;8.00;99.90;;;;;;5046706;28;20408;-84
2022/05/08 04:52:14;;;;;;;14.70;3.00;;;8.00;99.90;;;;;;5015967;28;20044;-84
2022/05/08 04:54:40;;;;;;;11.82;3.03;;;8.50;99.90;;;;;;5021985;28;20413;-85
2022/05/08 04:57:08;;;;;;;10.48;2.65;;;8.60;99.90;;;;;;5010654;28;20041;-85
2022/05/08 04:59:34;;;;;;;8.95;2.50;;;8.00;99.90;;;;;;5052073;28;20033;-85
2022/05/08 05:02:10;;;;;;;10.77;2.90;;;8.00;99.90;;;;;;5030487;28;20044;-83
2022/05/08 05:04:35;;;;;;;9.98;2.72;;;8.10;99.90;;;;;;5035723;28;20052;-84
2022/05/08 05:07:04;;;;;;;11.07;2.75;;;8.10;99.90;;;;;;5022081;28;20060;-84
2022/05/08 05:09:29;;;;;;;10.65;2.85;;;8.10;99.90;;;;;;5048613;28;20074;-83
2022/05/08 05:11:57;;;;;;;11.10;3.08;;;8.20;99.90;;;;;;5055096;28;20123;-84
2022/05/08 05:14:23;;;;;;;7.43;2.45;;;8.50;99.90;;;;;;5032036;28;20045;-84
2022/05/08 05:16:49;;;;;;;9.38;2.10;;;8.90;99.90;;;;;;5027877;28;20059;-85
2022/05/08 05:19:14;;;;;;;12.00;2.70;;;7.90;99.90;;;;;;5045118;28;20071;-84
2022/05/08 05:21:43;;;;;;;12.35;2.45;;;8.40;99.90;;;;;;5044978;28;20032;-85
2022/05/08 05:24:08;;;;;;;11.77;2.95;;;8.50;99.90;;;;;;5032045;28;20044;-84
2022/05/08 05:26:34;;;;;;;7.28;2.28;;;8.40;99.90;;;;;;5014411;28;20045;-85
2022/05/08 05:29:00;;;;;;;9.30;2.08;;;8.60;99.90;;;;;;5011285;28;20041;-83
2022/05/08 05:31:28;;;;;;;8.25;2.47;;;9.20;99.90;;;;;;5028340;28;20025;-85
2022/05/08 05:33:54;;;;;;;11.43;2.90;;;8.80;99.90;;;;;;5012039;28;20037;-84
2022/05/08 05:36:20;;;;;;;10.50;2.42;;;9.10;99.90;;;;;;5028744;28;20040;-84
2022/05/08 05:38:46;;;;;;;11.07;2.22;;;8.90;99.90;;;;;;5033789;28;20073;-84
2022/05/08 05:41:14;;;;;;;11.25;2.80;;;9.00;99.90;;;;;;5038683;28;20460;-84
2022/05/08 05:43:40;;;;;;;9.27;2.15;;;9.10;99.90;;;;;;5032047;28;20040;-85
2022/05/08 05:48:50;;;;;;;8.90;2.30;;;9.30;99.90;;;;;;5042984;28;20045;-85
2022/05/08 05:51:16;;;;;;;8.60;2.15;;;9.40;99.90;;;;;;5026351;28;20033;-84
2022/05/08 05:53:41;;;;;;;8.95;2.03;;;9.60;99.90;;;;;;5028888;28;20040;-84
2022/05/08 05:56:09;;;;;;;7.32;2.60;;;9.70;99.90;;;;;;4997589;28;20060;-83
2022/05/08 05:58:35;;;;;;;9.65;2.10;;;9.80;99.90;;;;;;5015186;28;20044;-83
2022/05/08 06:01:01;;;;;;;8.70;1.70;;;9.70;99.90;;;;;;5046419;28;20445;-85
2022/05/08 06:03:27;;;;;;;7.60;1.98;;;10.10;99.90;;;;;;5034098;28;20029;-83
2022/05/08 06:05:53;;;;;;;9.32;2.40;;;10.10;99.90;;;;;;5031704;28;20059;-85
2022/05/08 06:08:18;;;;;;;9.50;2.25;;;10.70;99.90;;;;;;5017347;28;20037;-84
2022/05/08 06:10:44;;;;;;;8.90;2.20;;;10.30;99.90;;;;;;5007873;28;20128;-83
2022/05/08 06:13:10;;;;;;;6.30;2.05;;;10.30;99.90;;;;;;5009359;28;20071;-82
2022/05/08 06:15:36;;;;;;;14.30;3.15;;;10.40;99.90;;;;;;5017258;28;20044;-81
2022/05/08 06:18:01;;;;;;;9.80;2.50;;;10.50;99.90;;;;;;5029702;28;20166;-83
2022/05/08 06:20:27;;;;;;;10.13;1.80;;;10.60;99.90;;;;;;5043851;28;20041;-84
2022/05/08 06:22:54;;;;;;;8.77;1.67;;;10.60;99.90;;;;;;5015208;28;20059;-87
2022/05/08 06:25:20;;;;;;;6.90;1.73;;;10.70;99.90;;;;;;5013845;28;20082;-82
2022/05/08 06:27:46;;;;;;;10.05;1.98;;;10.70;99.90;;;;;;5038756;28;20029;-85
2022/05/08 06:30:13;;;;;;;6.90;2.13;;;10.70;99.90;;;;;;5000727;28;20557;-85
2022/05/08 06:32:38;;;;;;;16.60;3.85;;;10.70;99.90;;;;;;5048814;28;20044;-84
2022/05/08 06:35:04;;;;;;;7.60;2.10;;;10.70;99.90;;;;;;5013650;28;22208;-83
2022/05/08 06:37:30;;;;;;;9.35;2.33;;;10.80;99.90;;;;;;5045519;28;20049;-84
2022/05/08 06:39:56;;;;;;;7.72;1.55;;;10.90;99.90;;;;;;5035815;28;20048;-85
2022/05/08 06:42:21;;;;;;;12.90;3.08;;;11.00;99.90;;;;;;5013633;28;20064;-85
2022/05/08 06:44:47;;;;;;;7.25;1.60;;;10.90;99.40;;;;;;5028114;28;20586;-85
2022/05/08 06:47:13;;;;;;;10.07;2.00;;;10.90;99.10;;;;;;5032719;28;20036;-85
2022/05/08 06:49:39;;;;;;;8.10;1.70;;;11.40;99.50;;;;;;5024640;28;20247;-84
2022/05/08 06:52:05;;;;;;;8.45;1.98;;;10.90;99.40;;;;;;5005540;28;20044;-85
2022/05/08 06:54:30;;;;;;;9.70;1.95;;;10.90;99.30;;;;;;5028545;28;20493;-84
2022/05/08 06:56:56;;;;;;;8.05;2.08;;;10.80;99.50;;;;;;5018514;28;20113;-82
2022/05/08 07:02:07;;;;;;;10.20;2.00;;;10.90;99.60;;;;;;5031597;28;20033;-85
2022/05/08 07:04:33;;;;;;;6.90;1.50;;;10.90;99.50;;;;;;5012026;28;20136;-84
2022/05/08 07:06:59;;;;;;;7.45;2.00;;;11.00;99.50;;;;;;5029147;28;20040;-85
2022/05/08 07:09:25;;;;;;;12.20;2.25;;;11.00;99.30;;;;;;5046740;28;20205;-84
2022/05/08 07:11:51;;;;;;;7.68;1.80;;;11.20;99.40;;;;;;5035672;28;20125;-85
2022/05/08 07:14:17;;;;;;;14.02;3.75;;;11.20;99.30;;;;;;5011837;28;20040;-84
2022/05/08 07:16:43;;;;;;;8.48;1.88;;;11.10;98.20;;;;;;5011283;28;20041;-85
2022/05/08 07:19:09;;;;;;;7.20;1.80;;;11.30;98.70;;;;;;5041885;28;20045;-83
2022/05/08 07:21:36;;;;;;;7.85;2.13;;;11.50;98.60;;;;;;5032018;28;20049;-84
2022/05/08 07:24:01;;;;;;;13.25;2.35;;;12.10;98.40;;;;;;5055891;28;20045;-85
2022/05/08 07:26:27;;;;;;;9.82;1.70;;;11.90;98.50;;;;;;5047251;28;20051;-83
2022/05/08 07:28:53;;;;;;;9.82;2.30;;;12.10;98.10;;;;;;5008409;28;20071;-84
2022/05/08 07:31:19;;;;;;;11.85;1.77;;;12.10;97.40;;;;;;5034280;28;20585;-83
2022/05/08 07:33:45;;;;;;;11.13;2.10;;;12.20;96.30;;;;;;5037819;28;20062;-85
2022/05/08 07:36:13;;;;;;;8.48;2.03;;;11.80;96.50;;;;;;5046589;28;20098;-85
2022/05/08 07:38:51;;;;;;;9.35;2.10;;;11.70;96.60;;;;;;5018512;28;20045;-84
2022/05/08 07:41:18;;;;;;;11.75;2.10;;;11.40;96.90;;;;;;5032831;28;20033;-83
2022/05/08 07:44:15;;;;;;;9.43;2.70;;;11.50;97.20;;;;;;5046218;28;20044;-83
2022/05/08 07:46:42;;;;;;;11.32;2.45;;;11.30;96.90;;;;;;5051144;28;20044;-84
2022/05/08 07:49:32;;;;;;;9.15;2.33;;;11.50;97.10;;;;;;5036864;28;20037;-84
2022/05/08 07:52:10;;;;;;;10.45;2.28;;;11.70;97.10;;;;;;5033548;28;20041;-84
2022/05/08 07:54:36;;;;;;;7.95;1.85;;;11.90;96.70;;;;;;5045345;28;20045;-82
2022/05/08 07:57:02;;;;;;;8.73;2.05;;;12.10;95.80;;;;;;5029729;28;20094;-84
2022/05/08 07:59:29;;;;;;;11.18;2.22;;;12.20;95.20;;;;;;5030014;28;20467;-84
2022/05/08 08:02:02;;;;;;;8.88;1.75;;;12.30;95.20;;;;;;5033177;28;20037;-84
2022/05/08 08:04:29;;;;;;;7.60;1.73;;;12.70;95.60;;;;;;5030350;28;20045;-81
2022/05/08 08:07:00;;;;;;;8.38;1.80;;;12.50;94.70;;;;;;5041230;28;20124;-83
2022/05/08 08:09:36;;;;;;;;;;;;;;;;;;;;;
2022/05/08 08:12:05;;;;;;;9.15;2.13;;;12.60;94.20;;;;;;5058476;22;20135;-64
2022/05/08 08:14:31;;;;;;;10.93;3.17;;;12.70;94.70;;;;;;5056318;28;20076;-67
2022/05/08 08:16:57;;;;;;;13.55;2.72;;;12.90;94.00;;;;;;5058747;28;20121;-62
2022/05/08 08:19:22;;;;;;;7.85;2.33;;;12.90;93.80;;;;;;5079453;28;20509;-63
2022/05/08 08:21:48;;;;;;;11.70;2.30;;;12.90;93.10;;;;;;5095552;22;20391;-82
2022/05/08 08:24:23;;;;;;;9.27;1.85;;;12.90;93.40;;;;;;5059379;28;20480;-85
2022/05/08 08:26:49;;;;;;;12.65;3.10;;;12.90;93.50;;;;;;5084315;28;20131;-85
2022/05/08 08:29:27;;;;;;;9.02;1.88;;;12.90;93.60;;;;;;5063870;28;20032;-84
2022/05/08 08:31:53;;;;;;;13.10;2.10;;;12.90;93.60;;;;;;5063421;28;20063;-82
2022/05/08 08:35:19;;;;;;;7.65;2.13;;;12.80;93.10;;;;;;5069021;28;20040;-83
2022/05/08 08:37:48;;;;;;;9.88;2.67;;;12.80;93.10;;;;;;5065036;28;20051;-85
2022/05/08 08:40:14;;;;;;;10.57;2.63;;;12.40;93.20;;;;;;5066051;28;20047;-83
2022/05/08 08:42:43;;;;;;;11.25;2.35;;;13.00;93.00;;;;;;5086477;22;20040;-81
2022/05/08 08:48:10;;;;;;;8.45;2.13;;;13.10;92.80;;;;;;5050314;28;20055;-84
2022/05/08 08:50:36;;;;;;;12.07;2.10;;;13.20;92.80;;;;;;5045706;28;20481;-83
2022/05/08 08:53:03;;;;;;;9.90;1.98;;;13.50;92.90;;;;;;5040939;28;20130;-82
2022/05/08 08:55:31;;;;;;;10.32;2.28;;;13.60;92.30;;;;;;5043161;28;20614;-85
2022/05/08 08:57:57;;;;;;;10.60;2.30;;;13.80;91.60;;;;;;5053475;22;20045;-84
2022/05/08 09:00:23;;;;;;;11.52;2.25;;;13.90;91.60;;;;;;5040455;28;20036;-84
2022/05/08 09:02:58;;;;;;;11.13;2.58;;;14.10;90.90;;;;;;5044755;28;20497;-82
2022/05/08 09:05:25;;;;;;;10.27;1.95;;;14.10;90.40;;;;;;5044393;28;20036;-85
2022/05/08 09:11:53;;;;;;;7.47;1.73;;;14.20;90.50;;;;;;5026482;28;20055;-83
2022/05/08 09:18:30;;;;;;;8.63;1.95;;;14.30;89.60;;;;;;5039563;28;20052;-84
2022/05/08 09:27:59;;;;;;;7.70;1.70;;;14.60;88.00;;;;;;5029551;22;20534;-67
2022/05/08 09:30:26;;;;;;;18.02;2.60;;;14.70;88.20;;;;;;5023347;28;20161;-65
2022/05/08 09:32:51;;;;;;;13.68;2.42;;;14.70;88.00;;;;;;5031880;28;20076;-70
2022/05/08 09:35:18;;;;;;;10.88;3.13;;;14.80;86.50;;;;;;5030992;28;20147;-67
2022/05/08 09:37:53;;;;;;;13.60;2.15;;;14.90;86.70;;;;;;4995797;28;20037;-65
2022/05/08 09:40:21;;;;;;;14.77;2.63;;;15.00;86.50;;;;;;5042491;28;20111;-70
2022/05/08 09:42:47;;;;;;;11.32;2.35;;;15.20;87.40;;;;;;5009299;28;20044;-70
2022/05/08 09:45:13;;;;;;;8.73;2.13;;;15.40;85.40;;;;;;5024755;28;20161;-67
2022/05/08 09:47:47;;;;;;;8.23;1.70;;;15.20;85.60;;;;;;5000939;28;20036;-64
2022/05/08 09:50:14;;;;;;;9.38;2.00;;;15.40;84.30;;;;;;5014875;28;20103;-65
2022/05/08 09:52:42;;;;;;;8.02;1.83;;;15.40;84.70;;;;;;5050633;22;20644;-64
2022/05/08 09:55:09;;;;;;;7.38;2.22;;;15.50;83.60;;;;;;5047232;28;20102;-65
2022/05/08 09:57:35;;;;;;;12.80;2.70;;;15.50;85.00;;;;;;5033667;28;20560;-61
2022/05/08 10:00:03;;;;;;;13.18;2.42;;;15.60;83.40;;;;;;5041012;28;20045;-62
2022/05/08 10:02:29;;;;;;;15.05;2.67;;;15.50;83.30;;;;;;5048123;28;20074;-62
2022/05/08 10:04:55;;;;;;;8.60;1.85;;;15.40;81.30;;;;;;5061483;28;20048;-63
2022/05/08 10:07:21;;;;;;;9.70;2.50;;;15.40;82.60;;;;;;5053970;28;20041;-64
2022/05/08 10:15:29;;;;;;;10.75;2.08;;;15.40;82.60;;;;;;5065000;28;20056;-66
2022/05/08 10:18:29;;;;;;;9.93;2.15;;;15.60;81.60;;;;;;5047370;28;20037;-66
2022/05/08 10:21:12;;;;;;;11.73;2.13;;;15.40;82.30;;;;;;5059867;28;20094;-67
2022/05/08 10:23:42;;;;;;;9.25;1.80;;;15.40;82.70;;;;;;5045859;28;20040;-64
2022/05/08 10:26:22;;;;;;;8.88;2.25;;;15.30;82.10;;;;;;5036759;28;20514;-64
2022/05/08 10:29:13;;;;;;;6.57;1.80;;;15.30;82.60;;;;;;5058495;22;20052;-66
2022/05/08 10:31:42;;;;;;;8.05;2.40;;;15.30;81.50;;;;;;5029812;28;20037;-64
2022/05/08 10:34:10;;;;;;;7.32;1.92;;;15.40;82.30;;;;;;5040793;28;21277;-65
2022/05/08 10:36:41;;;;;;;10.52;2.22;;;15.60;82.50;;;;;;5034331;28;20042;-67
2022/05/08 10:39:41;;;;;;;10.52;2.33;;;15.80;83.20;;;;;;5055165;28;20589;-64
2022/05/08 10:42:29;;;;;;;7.13;2.00;;;15.90;79.90;;;;;;5053975;28;20123;-63
2022/05/08 10:45:00;;;;;;;12.25;2.80;;;16.10;79.90;;;;;;5051072;28;20079;-64
2022/05/08 10:50:07;;;;;;;10.32;2.63;;;16.20;81.00;;;;;;5069887;22;20052;-86
2022/05/08 10:52:41;;;;;;;8.85;2.47;;;16.20;80.70;;;;;;5037435;28;20048;-87
2022/05/08 10:55:09;;;;;;;12.73;2.40;;;16.20;77.60;;;;;;5037610;28;20061;-84
2022/05/08 10:57:36;;;;;;;9.57;2.25;;;16.30;78.60;;;;;;5049645;28;20044;-83
2022/05/08 11:00:11;;;;;;;6.90;2.10;;;16.40;78.80;;;;;;5023585;28;20048;-82
2022/05/08 11:02:52;;;;;;;9.85;2.55;;;16.40;76.90;;;;;;5040802;28;20485;-84
2022/05/08 11:05:24;;;;;;;11.90;2.30;;;16.50;77.40;;;;;;5027207;28;20058;-83
2022/05/08 11:08:07;;;;;;;12.13;2.50;;;16.40;77.30;;;;;;5059423;22;20044;-65
2022/05/08 11:10:38;;;;;;;7.22;2.50;;;16.50;78.00;;;;;;5047227;28;20071;-66
2022/05/08 11:13:06;;;;;;;14.07;3.55;;;16.60;78.10;;;;;;5033879;28;20523;-65
2022/05/08 11:17:16;;;;;;;8.60;2.67;;;17.10;77.20;;;;;;5014677;27;20115;-64
2022/05/08 11:19:52;;;;;;;9.00;2.45;;;17.20;76.50;;;;;;5015930;28;20134;-60
2022/05/08 11:22:18;;;;;;;8.25;2.08;;;17.10;74.40;;;;;;5010757;28;20376;-62
2022/05/08 11:24:47;;;;;;;10.82;2.47;;;17.00;75.60;;;;;;5044710;27;20040;-61
2022/05/08 11:27:14;;;;;;;10.30;2.88;;;17.20;74.50;;;;;;5083110;28;20844;-64
2022/05/08 11:29:49;;;;;;;13.90;3.03;;;17.30;73.00;;;;;;5062880;28;21000;-65
2022/05/08 11:38:01;;;;;;;11.38;2.20;;;17.60;70.80;;;;;;5077421;28;20057;-61
2022/05/08 11:40:28;;;;;;;5.50;1.92;;;17.70;70.60;;;;;;5089803;28;20127;-59
2022/05/08 11:42:53;;;;;;;12.93;2.80;;;17.80;72.40;;;;;;5080640;28;20035;-58
2022/05/08 11:45:19;;;;;;;8.75;2.00;;;17.60;69.40;;;;;;5064598;28;20412;-65
2022/05/08 11:47:53;;;;;;;10.88;2.20;;;17.80;72.00;;;;;;5093944;28;20040;-62
2022/05/08 11:50:20;;;;;;;11.02;2.95;;;17.70;69.40;;;;;;5081272;28;20232;-60
2022/05/08 11:52:46;;;;;;;10.25;2.78;;;17.80;69.60;;;;;;5093868;28;20054;-59
2022/05/08 11:55:13;;;;;;;7.93;2.08;;;17.80;68.80;;;;;;5091012;27;20122;-60
2022/05/08 11:57:45;;;;;;;9.70;2.03;;;17.80;65.70;;;;;;5079210;28;20170;-62
2022/05/08 12:00:14;;;;;;;9.90;2.53;;;17.70;67.00;;;;;;5070286;28;20439;-61
2022/05/08 12:02:47;;;;;;;7.78;1.92;;;17.80;68.00;;;;;;5086341;28;20039;-60
2022/05/08 12:05:18;;;;;;;8.70;2.08;;;18.00;69.00;;;;;;5076502;28;20043;-59
2022/05/08 12:07:47;;;;;;;10.07;2.10;;;18.10;68.50;;;;;;5082051;28;20532;-60
2022/05/08 12:10:14;;;;;;;11.40;2.40;;;18.00;67.80;;;;;;5080378;28;20039;-63
2022/05/08 12:12:41;;;;;;;9.35;2.05;;;18.20;69.20;;;;;;5068078;28;20044;-65
2022/05/08 12:15:06;;;;;;;10.75;2.58;;;17.90;65.30;;;;;;5060211;28;20073;-57
2022/05/08 12:17:44;;;;;;;8.05;2.20;;;17.90;67.10;;;;;;5095308;28;20032;-57
2022/05/08 12:20:35;;;;;;;8.30;2.30;;;18.00;67.30;;;;;;5095623;28;20043;-63
2022/05/08 12:23:03;;;;;;;9.10;2.88;;;18.30;67.30;;;;;;5073223;28;20075;-58
2022/05/08 12:25:30;;;;;;;10.35;2.33;;;18.20;65.90;;;;;;5066304;28;20214;-57
2022/05/08 12:27:56;;;;;;;10.02;2.15;;;18.40;65.20;;;;;;5055038;28;20074;-58
2022/05/08 12:30:22;;;;;;;9.18;2.42;;;18.50;63.80;;;;;;5070952;28;20071;-63
2022/05/08 12:32:48;;;;;;;11.82;2.65;;;18.50;64.10;;;;;;5068643;28;20109;-60
2022/05/08 12:35:14;;;;;;;8.88;2.10;;;18.60;65.70;;;;;;5076733;28;20131;-59
2022/05/08 12:37:41;;;;;;;7.75;2.70;;;18.80;65.00;;;;;;5069179;28;20089;-58
2022/05/08 12:40:08;;;;;;;13.98;2.67;;;18.80;65.50;;;;;;5063677;28;20044;-60
2022/05/08 12:42:34;;;;;;;10.02;2.92;;;18.60;62.80;;;;;;5101415;28;20097;-59
2022/05/08 12:44:59;;;;;;;9.75;2.55;;;18.60;60.80;;;;;;5047281;28;20039;-63
2022/05/08 12:47:25;;;;;;;10.98;2.75;;;18.40;63.70;;;;;;5076116;28;20479;-64
2022/05/08 12:49:53;;;;;;;8.00;2.53;;;18.50;66.00;;;;;;5072422;28;20503;-63
2022/05/08 12:52:19;;;;;;;11.45;3.00;;;18.60;65.00;;;;;;5082399;28;20106;-62
2022/05/08 12:54:45;;;;;;;10.75;3.05;;;18.60;65.40;;;;;;5071358;28;20079;-61
2022/05/08 12:57:11;;;;;;;12.57;2.97;;;18.80;66.60;;;;;;5038534;28;20329;-62
2022/05/08 12:59:46;;;;;;;8.93;2.40;;;18.90;64.40;;;;;;5057454;28;20043;-66
2022/05/08 13:02:18;;;;;;;11.68;2.78;;;18.80;64.20;;;;;;5064447;28;20079;-61
2022/05/08 13:04:45;;;;;;;9.32;2.20;;;18.70;63.00;;;;;;5089077;28;20101;-61
2022/05/08 13:07:11;;;;;;;8.65;2.50;;;18.80;65.00;;;;;;5064626;28;20113;-61
2022/05/08 13:09:38;;;;;;;8.18;2.30;;;18.60;63.50;;;;;;5086187;28;20142;-61
2022/05/08 13:12:05;;;;;;;7.00;1.90;;;18.70;62.50;;;;;;5052168;28;20040;-66
2022/05/08 13:14:32;;;;;;;10.65;2.65;;;18.90;63.30;;;;;;5089720;28;20036;-62
2022/05/08 13:16:59;;;;;;;12.18;2.38;;;18.80;62.90;;;;;;5058127;28;20426;-63
2022/05/08 13:19:27;;;;;;;7.57;2.15;;;18.90;65.20;;;;;;5041664;28;20047;-63
2022/05/08 13:21:54;;;;;;;7.65;2.28;;;18.70;61.80;;;;;;5056394;28;20044;-63
2022/05/08 13:24:19;;;;;;;8.27;2.25;;;18.70;64.40;;;;;;5080494;28;20410;-61
2022/05/08 13:26:46;;;;;;;12.43;3.03;;;19.00;64.60;;;;;;5051246;28;20070;-66
2022/05/08 13:29:13;;;;;;;10.05;2.35;;;19.20;63.20;;;;;;5069809;28;20032;-63
2022/05/08 13:31:41;;;;;;;11.30;2.85;;;19.20;63.40;;;;;;5074364;28;20486;-61
2022/05/08 13:34:08;;;;;;;9.77;2.50;;;19.10;63.60;;;;;;5082320;28;20047;-63
2022/05/08 13:36:33;;;;;;;8.85;2.40;;;19.20;64.60;;;;;;5080018;28;20040;-63
2022/05/08 13:38:59;;;;;;;18.58;2.78;;;19.10;63.70;;;;;;5085440;28;20540;-64